Terminal Aerodrome Forecast
Issued by NWS

Home | Current Version | Previous Version | Text Only | Print | Product List | Glossary On
Versions: 1 2 3 4 5 6 7 8 9 10 11 12 13 14 15 16 17 18 19
000
FTUS45 KABQ 291745 CCA
TAFTCC
TAF COR
KTCC 291745Z 2918/3018 01011G21KT P6SM -RA OVC035
      TEMPO 2918/2920 01016G26KT 5SM RA BR OVC015
     FM292000 02020G30KT P6SM VCSH BKN045
     FM300100 27008KT P6SM FEW070
     FM301500 26011KT P6SM SCT250=

USA.gov is the U.S. government's official web portal to all federal, state and local government web resources and services.